createdAt,value
2023-05-17T00:03:35.243Z,7.60
2023-05-17T00:08:38.095Z,5.20
2023-05-17T00:13:41.192Z,6.00
2023-05-17T00:18:45.802Z,5.60
2023-05-17T00:23:48.751Z,5.20
2023-05-17T00:28:51.580Z,6.00
2023-05-17T00:33:55.785Z,6.00
2023-05-17T00:38:58.673Z,5.20
2023-05-17T00:44:01.524Z,6.00
2023-05-17T00:49:05.765Z,5.00
2023-05-17T00:54:08.584Z,5.00
2023-05-17T00:59:11.483Z,5.00
2023-05-17T01:04:15.955Z,5.00
2023-05-17T01:09:18.953Z,5.00
2023-05-17T01:14:29.105Z,5.00
2023-05-17T01:19:54.482Z,5.80
2023-05-17T01:25:05.222Z,5.00
2023-05-17T01:30:11.212Z,4.00
2023-05-17T01:35:14.065Z,5.20
2023-05-17T01:40:16.894Z,6.00
2023-05-17T01:45:23.218Z,5.00
2023-05-17T01:50:30.144Z,5.20
2023-05-17T01:55:35.680Z,5.00
2023-05-17T02:00:40.088Z,5.00
2023-05-17T02:05:42.914Z,4.00
2023-05-17T02:10:45.783Z,4.20
2023-05-17T02:15:50.053Z,5.00
2023-05-17T02:20:52.916Z,3.60
2023-05-17T02:25:55.868Z,4.00
2023-05-17T02:31:00.068Z,5.00
2023-05-17T02:36:02.950Z,4.60
2023-05-17T02:41:05.928Z,5.00
2023-05-17T02:46:10.173Z,4.00
2023-05-17T02:51:13.209Z,4.80
2023-05-17T02:56:16.044Z,4.20
2023-05-17T03:01:20.537Z,4.60
2023-05-17T03:06:23.450Z,4.60
2023-05-17T03:11:27.973Z,4.80
2023-05-17T03:16:34.589Z,5.00
2023-05-17T03:21:37.863Z,4.00
2023-05-17T03:26:41.236Z,4.00
2023-05-17T03:31:47.566Z,2.00
2023-05-17T03:36:51.178Z,4.00
2023-05-17T03:41:54.095Z,2.00
2023-05-17T03:46:59.585Z,3.60
2023-05-17T03:52:03.547Z,4.00
2023-05-17T03:57:07.075Z,2.00
2023-05-17T04:02:12.572Z,2.00
2023-05-17T04:07:15.732Z,2.00
2023-05-17T04:12:18.651Z,2.00
2023-05-17T04:17:22.952Z,4.00
2023-05-17T04:22:26.749Z,2.00
2023-05-17T04:27:29.591Z,2.00
2023-05-17T04:32:34.104Z,1.60
2023-05-17T04:37:39.788Z,1.80
2023-05-17T04:42:52.713Z,2.00
2023-05-17T04:47:57.751Z,2.00
2023-05-17T04:53:00.926Z,2.40
2023-05-17T04:58:06.838Z,1.20
2023-05-17T05:03:12.494Z,1.00
2023-05-17T05:08:16.040Z,1.00
2023-05-17T05:13:21.025Z,1.00
2023-05-17T05:18:25.311Z,1.00
2023-05-17T05:23:28.349Z,1.00
2023-05-17T05:28:31.648Z,1.40
2023-05-17T05:33:36.931Z,1.00
2023-05-17T05:38:40.220Z,1.20
2023-05-17T05:43:43.388Z,1.00
2023-05-17T05:48:48.394Z,1.80
2023-05-17T05:53:51.462Z,0.00
2023-05-17T05:58:55.906Z,1.60
2023-05-17T06:04:01.114Z,1.60
2023-05-17T06:09:07.107Z,1.00
2023-05-17T06:14:09.979Z,1.00
2023-05-17T06:19:14.349Z,1.00
2023-05-17T06:24:17.935Z,1.00
2023-05-17T06:29:20.876Z,1.00
2023-05-17T06:34:25.167Z,1.00
2023-05-17T06:39:28.580Z,1.00
2023-05-17T06:44:31.553Z,1.00
2023-05-17T06:49:36.017Z,1.60
2023-05-17T06:54:38.950Z,1.00
2023-05-17T06:59:41.890Z,1.00
2023-05-17T07:04:46.241Z,1.00
2023-05-17T07:09:49.505Z,1.20
2023-05-17T07:14:52.323Z,4.80
2023-05-17T07:19:56.733Z,6.80
2023-05-17T07:24:59.658Z,6.60
2023-05-17T07:30:03.432Z,5.60
2023-05-17T07:35:08.314Z,5.00
2023-05-17T07:40:12.397Z,4.00
2023-05-17T07:45:15.559Z,4.00
2023-05-17T07:50:19.892Z,2.00
2023-05-17T07:55:23.259Z,2.00
2023-05-17T08:00:27.879Z,1.80
2023-05-17T08:05:32.247Z,2.80
2023-05-17T08:10:37.189Z,1.40
2023-05-17T08:15:40.478Z,2.00
2023-05-17T08:20:45.532Z,2.00
2023-05-17T08:25:48.466Z,1.00
2023-05-17T08:30:52.136Z,1.20
2023-05-17T08:35:57.816Z,1.20
2023-05-17T08:41:02.108Z,1.00
2023-05-17T08:46:05.163Z,1.40
2023-05-17T08:51:09.835Z,1.00
2023-05-17T08:56:12.962Z,1.00
2023-05-17T09:01:16.792Z,1.80
2023-05-17T09:06:23.014Z,2.00
2023-05-17T09:11:27.747Z,2.00
2023-05-17T09:16:31.108Z,1.20
2023-05-17T09:21:36.027Z,1.40
2023-05-17T09:26:39.502Z,1.00
2023-05-17T09:31:47.836Z,0.20
2023-05-17T09:36:58.322Z,1.00
2023-05-17T09:42:01.213Z,1.40
2023-05-17T09:47:04.080Z,1.20
2023-05-17T09:52:09.426Z,0.40
2023-05-17T09:57:12.299Z,1.00
2023-05-17T10:02:22.140Z,0.80
2023-05-17T10:07:27.812Z,1.00
2023-05-17T10:12:30.770Z,1.00
2023-05-17T10:17:35.738Z,1.40
2023-05-17T10:22:39.964Z,1.00
2023-05-17T10:27:43.048Z,1.40
2023-05-17T10:32:46.605Z,1.00
2023-05-17T10:37:51.158Z,1.00
2023-05-17T10:42:55.074Z,1.00
2023-05-17T10:47:59.723Z,1.20
2023-05-17T10:53:06.710Z,1.00
2023-05-17T10:58:19.922Z,0.40
2023-05-17T11:03:24.322Z,1.00
2023-05-17T11:08:28.550Z,1.00
2023-05-17T11:13:31.561Z,1.00
2023-05-17T11:18:50.863Z,1.00
2023-05-17T11:23:57.293Z,1.00
2023-05-17T11:29:02.480Z,0.00
2023-05-17T11:34:05.546Z,1.00
2023-05-17T11:39:13.379Z,0.40
2023-05-17T11:44:16.673Z,1.00
2023-05-17T11:49:34.387Z,1.00
2023-05-17T11:54:40.378Z,0.00
2023-05-17T11:59:44.041Z,1.00
2023-05-17T12:04:47.045Z,1.40
2023-05-17T12:09:51.372Z,0.00
2023-05-17T12:14:54.527Z,1.00
2023-05-17T12:19:57.544Z,1.00
2023-05-17T12:25:01.915Z,0.80
2023-05-17T12:30:15.772Z,0.80
2023-05-17T12:35:18.678Z,0.20
2023-05-17T12:40:22.931Z,1.00
2023-05-17T12:45:25.772Z,0.40
2023-05-17T12:50:30.415Z,1.00
2023-05-17T12:55:37.782Z,1.00
2023-05-17T13:00:40.885Z,0.40
2023-05-17T13:05:44.268Z,55.00
2023-05-17T13:10:48.463Z,81.33
2023-05-17T13:15:51.319Z,109.75
2023-05-17T13:20:54.292Z,123.75
2023-05-17T13:25:58.516Z,137.50
2023-05-17T13:31:01.428Z,134.25
2023-05-17T13:36:04.539Z,135.50
2023-05-17T13:41:09.339Z,125.75
2023-05-17T13:46:12.166Z,122.50
2023-05-17T13:51:15.196Z,109.00
2023-05-17T13:56:19.542Z,108.75
2023-05-17T14:01:31.414Z,99.00
2023-05-17T14:06:39.607Z,93.33
2023-05-17T14:11:50.565Z,89.50
2023-05-17T14:16:57.782Z,89.33
2023-05-17T14:22:06.525Z,81.00
2023-05-17T14:27:13.949Z,74.25
2023-05-17T14:32:16.800Z,70.50
2023-05-17T14:37:21.176Z,68.00
2023-05-17T14:42:25.918Z,65.00
2023-05-17T14:47:29.091Z,66.75
2023-05-17T14:52:31.928Z,62.25
2023-05-17T14:57:36.997Z,60.75
2023-05-17T15:02:40.176Z,58.75
2023-05-17T15:07:43.357Z,53.75
2023-05-17T15:12:47.674Z,53.50
2023-05-17T15:17:50.583Z,50.25
2023-05-17T15:22:53.576Z,47.25
2023-05-17T15:27:58.036Z,46.75
2023-05-17T15:33:01.386Z,46.00
2023-05-17T15:38:06.093Z,47.00
2023-05-17T15:43:10.462Z,44.75
2023-05-17T15:48:13.602Z,44.25
2023-05-17T15:53:16.627Z,44.00
2023-05-17T15:58:21.331Z,44.75
2023-05-17T16:03:24.631Z,44.00
2023-05-17T16:08:27.742Z,41.00
2023-05-17T16:13:33.290Z,42.50
2023-05-17T16:18:36.274Z,43.00
2023-05-17T16:23:39.301Z,42.25
2023-05-17T16:28:43.618Z,42.00
2023-05-17T16:33:46.581Z,39.00
2023-05-17T16:38:49.531Z,35.00
2023-05-17T16:43:53.747Z,34.00
2023-05-17T16:48:56.556Z,34.33
2023-05-17T16:53:59.403Z,31.00
2023-05-17T16:59:03.636Z,29.67
2023-05-17T17:04:06.874Z,27.67
2023-05-17T17:09:11.659Z,25.00
2023-05-17T17:14:16.206Z,22.00
2023-05-17T17:19:19.264Z,19.00
2023-05-17T17:24:22.113Z,18.25
2023-05-17T17:29:26.448Z,18.00
2023-05-17T17:34:29.618Z,19.50
2023-05-17T17:39:32.652Z,19.00
2023-05-17T17:44:36.924Z,15.75
2023-05-17T17:49:39.857Z,16.60
2023-05-17T17:54:44.071Z,15.40
2023-05-17T17:59:50.136Z,13.60
2023-05-17T18:04:53.100Z,12.00
2023-05-17T18:09:56.932Z,12.00
2023-05-17T18:15:01.882Z,11.20
2023-05-17T18:20:06.801Z,12.40
2023-05-17T18:25:10.345Z,13.00
2023-05-17T18:30:15.453Z,12.80
2023-05-17T18:35:18.397Z,13.00
2023-05-17T18:40:21.556Z,11.80
2023-05-17T18:45:25.857Z,14.00
2023-05-17T18:50:29.086Z,13.20
2023-05-17T18:55:32.250Z,13.00
2023-05-17T19:00:36.524Z,11.20
2023-05-17T19:05:39.496Z,11.00
2023-05-17T19:10:42.314Z,12.60
2023-05-17T19:15:46.549Z,11.00
2023-05-17T19:20:49.482Z,10.40
2023-05-17T19:25:53.442Z,11.00
2023-05-17T19:30:57.785Z,10.80
2023-05-17T19:36:00.786Z,10.00
2023-05-17T19:41:03.793Z,12.60
2023-05-17T19:46:10.768Z,11.00
2023-05-17T19:51:13.683Z,11.00
2023-05-17T19:56:16.591Z,9.40
2023-05-17T20:01:21.584Z,9.00
2023-05-17T20:06:26.647Z,9.60
2023-05-17T20:11:34.006Z,9.80
2023-05-17T20:16:40.184Z,10.00
2023-05-17T20:21:43.153Z,10.00
2023-05-17T20:26:46.818Z,8.40
2023-05-17T20:31:54.325Z,10.00
2023-05-17T20:36:58.275Z,10.20
2023-05-17T20:42:02.294Z,10.00
2023-05-17T20:47:07.566Z,10.00
2023-05-17T20:52:10.516Z,10.00
2023-05-17T20:57:13.391Z,11.00
2023-05-17T21:02:17.796Z,9.40
2023-05-17T21:07:20.908Z,7.00
2023-05-17T21:12:24.024Z,7.40
2023-05-17T21:17:28.724Z,9.20
2023-05-17T21:22:31.773Z,8.60
2023-05-17T21:27:35.392Z,9.00
2023-05-17T21:32:39.692Z,9.00
2023-05-17T21:37:42.604Z,9.00
2023-05-17T21:42:45.696Z,7.00
2023-05-17T21:47:49.975Z,9.00
2023-05-17T21:52:53.268Z,7.00
2023-05-17T21:57:56.295Z,7.80
2023-05-17T22:03:00.841Z,7.00
2023-05-17T22:08:03.923Z,8.00
2023-05-17T22:13:08.034Z,7.00
2023-05-17T22:18:13.840Z,7.40
2023-05-17T22:23:16.849Z,8.20
2023-05-17T22:28:19.679Z,7.40
2023-05-17T22:33:23.944Z,7.00
2023-05-17T22:38:26.850Z,6.00
2023-05-17T22:43:30.082Z,7.00
2023-05-17T22:48:37.263Z,7.00
2023-05-17T22:53:40.441Z,8.60
2023-05-17T22:58:43.460Z,7.00
2023-05-17T23:03:47.753Z,6.20
2023-05-17T23:08:52.569Z,5.80
2023-05-17T23:13:55.693Z,6.00
2023-05-17T23:19:00.133Z,6.00
2023-05-17T23:24:03.107Z,7.00
2023-05-17T23:29:05.954Z,5.00
2023-05-17T23:34:10.181Z,6.00
2023-05-17T23:39:12.999Z,6.40
2023-05-17T23:44:17.850Z,5.80
2023-05-17T23:49:23.030Z,7.80
2023-05-17T23:54:25.898Z,5.80
2023-05-17T23:59:29.468Z,6.00
